createdAt,value
2019-06-20T00:00:47.092Z,100022.23
2019-06-20T00:04:03.877Z,100014.94
2019-06-20T00:07:20.576Z,100021.05
2019-06-20T00:10:37.289Z,100034.41
2019-06-20T00:13:53.888Z,100025.12
2019-06-20T00:17:10.864Z,100036.11
2019-06-20T00:20:27.658Z,100021.89
2019-06-20T00:23:44.390Z,100020.64
2019-06-20T00:27:01.131Z,100018.66
2019-06-20T00:30:19.088Z,100033.72
2019-06-20T00:33:35.881Z,100034.92
2019-06-20T00:36:52.694Z,100022.80
2019-06-20T00:40:11.035Z,100026.45
2019-06-20T00:43:27.662Z,100023.14
2019-06-20T00:46:44.331Z,100006.02
2019-06-20T00:50:01.075Z,100017.85
2019-06-20T00:53:19.923Z,100015.42
2019-06-20T00:56:36.739Z,100005.30
2019-06-20T00:59:53.429Z,100011.81
2019-06-20T01:03:10.195Z,100011.03
2019-06-20T01:06:26.916Z,100002.96
2019-06-20T01:09:43.513Z,100010.30
2019-06-20T01:13:00.165Z,100009.49
2019-06-20T01:16:16.913Z,100012.34
2019-06-20T01:19:33.534Z,100003.82
2019-06-20T01:22:50.168Z,100012.34
2019-06-20T01:26:08.408Z,100018.42
2019-06-20T01:29:25.687Z,100011.09
2019-06-20T01:32:45.754Z,99998.88
2019-06-20T01:36:02.659Z,99999.27
2019-06-20T01:39:19.791Z,100006.15
2019-06-20T01:42:37.305Z,100004.84
2019-06-20T01:45:54.053Z,100001.19
2019-06-20T01:49:11.025Z,100003.23
2019-06-20T01:52:27.647Z,99997.95
2019-06-20T01:55:44.379Z,99999.20
2019-06-20T01:59:02.613Z,99998.48
2019-06-20T02:02:19.276Z,99979.89
2019-06-20T02:05:35.887Z,99984.31
2019-06-20T02:08:52.874Z,99988.84
2019-06-20T02:12:09.588Z,99996.97
2019-06-20T02:15:26.284Z,99997.02
2019-06-20T02:18:42.981Z,99988.55
2019-06-20T02:21:59.748Z,99991.84
2019-06-20T02:25:17.678Z,100001.22
2019-06-20T02:28:34.893Z,99999.25
2019-06-20T02:31:51.498Z,99999.30
2019-06-20T02:35:08.203Z,100000.55
2019-06-20T02:38:27.172Z,99996.55
2019-06-20T02:41:45.388Z,99998.19
2019-06-20T02:45:02.188Z,100011.58
2019-06-20T02:48:18.948Z,100017.30
2019-06-20T02:51:37.529Z,100002.73
2019-06-20T02:54:54.560Z,100015.76
2019-06-20T02:58:11.309Z,100015.72
2019-06-20T03:01:27.937Z,100023.44
2019-06-20T03:04:45.749Z,100021.83
2019-06-20T03:08:02.989Z,100011.71
2019-06-20T03:11:20.237Z,100021.43
2019-06-20T03:14:45.472Z,100019.02
2019-06-20T03:17:55.787Z,100026.73
2019-06-20T03:21:15.152Z,100025.92
2019-06-20T03:24:31.840Z,100031.60
2019-06-20T03:27:48.474Z,100019.84
2019-06-20T03:31:05.183Z,100026.35
2019-06-20T03:34:21.829Z,100028.38
2019-06-20T03:37:38.563Z,100023.94
2019-06-20T03:40:55.232Z,100018.28
2019-06-20T03:44:12.012Z,100017.45
2019-06-20T03:47:28.720Z,100014.20
2019-06-20T03:50:45.408Z,100019.47
2019-06-20T03:54:02.027Z,100017.86
2019-06-20T03:57:18.692Z,100017.45
2019-06-20T04:00:39.421Z,100003.67
2019-06-20T04:03:56.118Z,100012.56
2019-06-20T04:07:12.904Z,100010.95
2019-06-20T04:10:29.485Z,100023.48
2019-06-20T04:13:47.656Z,100019.82
2019-06-20T04:17:04.366Z,100018.99
2019-06-20T04:20:20.960Z,100030.31
2019-06-20T04:23:41.803Z,100028.66
2019-06-20T04:26:58.433Z,100024.58
2019-06-20T04:30:15.061Z,100030.22
2019-06-20T04:33:31.836Z,100028.55
2019-06-20T04:36:48.463Z,100017.15
2019-06-20T04:40:05.210Z,100026.02
2019-06-20T04:43:22.015Z,100032.46
2019-06-20T04:46:53.807Z,100029.17
2019-06-20T04:50:11.608Z,100036.84
2019-06-20T04:53:28.376Z,100039.99
2019-06-20T04:56:45.170Z,100041.97
2019-06-20T05:00:02.646Z,100033.78
2019-06-20T05:03:19.342Z,100041.81
2019-06-20T05:06:36.088Z,100035.66
2019-06-20T05:09:52.984Z,100028.66
2019-06-20T05:13:09.784Z,100036.30
2019-06-20T05:16:26.733Z,100034.53
2019-06-20T05:19:43.359Z,100037.69
2019-06-20T05:23:01.399Z,100038.00
2019-06-20T05:26:18.137Z,100042.81
2019-06-20T05:29:34.856Z,100057.35
2019-06-20T05:32:52.057Z,100048.31
2019-06-20T05:36:09.017Z,100042.09
2019-06-20T05:39:25.776Z,100048.05
2019-06-20T05:42:42.586Z,100038.55
2019-06-20T05:46:08.772Z,100042.11
2019-06-20T05:49:20.768Z,100048.48
2019-06-20T05:52:38.424Z,100043.06
2019-06-20T05:55:56.057Z,100039.69
2019-06-20T05:59:15.077Z,100037.11
2019-06-20T06:02:31.825Z,100040.61
2019-06-20T06:05:50.698Z,100051.83
2019-06-20T06:09:12.673Z,100044.72
2019-06-20T06:12:31.662Z,100044.60
2019-06-20T06:16:06.417Z,100052.96
2019-06-20T06:19:24.668Z,100050.36
2019-06-20T06:22:44.501Z,100054.25
2019-06-20T06:25:59.957Z,100058.95
2019-06-20T06:29:16.691Z,100064.89
2019-06-20T06:32:39.940Z,100071.98
2019-06-20T06:35:51.883Z,100070.54
2019-06-20T06:39:13.770Z,100062.95
2019-06-20T06:42:46.314Z,100057.37
2019-06-20T06:46:12.112Z,100074.02
2019-06-20T06:49:30.103Z,100067.12
2019-06-20T06:52:51.221Z,100066.89
2019-06-20T06:56:08.531Z,100068.70
2019-06-20T06:59:33.791Z,100066.05
2019-06-20T07:03:00.432Z,100067.05
2019-06-20T07:06:29.432Z,100061.72
2019-06-20T07:13:50.390Z,100068.88
2019-06-20T07:17:17.598Z,100070.14
2019-06-20T07:20:38.020Z,100065.83
2019-06-20T07:24:01.090Z,100070.56
2019-06-20T07:27:17.929Z,100064.93
2019-06-20T07:30:37.341Z,100070.47
2019-06-20T07:33:53.959Z,100068.31
2019-06-20T07:37:14.741Z,100079.73
2019-06-20T07:40:57.975Z,100070.70
2019-06-20T07:44:22.847Z,100067.31
2019-06-20T07:47:40.598Z,100063.11
2019-06-20T07:50:57.577Z,100061.00
2019-06-20T07:58:35.751Z,100065.25
2019-06-20T08:02:01.545Z,100074.78
2019-06-20T08:05:18.807Z,100063.55
2019-06-20T08:08:43.017Z,100076.39
2019-06-20T08:11:59.794Z,100065.73
2019-06-20T08:15:18.681Z,100077.33
2019-06-20T08:18:36.621Z,100077.20
2019-06-20T08:21:53.377Z,100087.40
2019-06-20T08:25:10.511Z,100075.33
2019-06-20T08:28:27.271Z,100066.32
2019-06-20T08:31:44.069Z,100076.55
2019-06-20T08:35:16.722Z,100079.02
2019-06-20T08:38:34.984Z,100072.95
2019-06-20T08:41:57.155Z,100075.09
2019-06-20T08:45:14.876Z,100074.30
2019-06-20T08:48:31.484Z,100075.52
2019-06-20T08:56:03.207Z,100062.73
2019-06-20T08:59:24.799Z,100056.14
2019-06-20T09:07:09.448Z,100066.16
2019-06-20T09:10:59.540Z,100076.03
2019-06-20T09:14:41.878Z,100061.50
2019-06-20T09:18:02.886Z,100067.95
2019-06-20T09:21:21.213Z,100066.17
2019-06-20T09:24:37.999Z,100067.47
2019-06-20T09:28:00.288Z,100070.72
2019-06-20T09:31:28.061Z,100068.16
2019-06-20T09:34:47.753Z,100064.64
2019-06-20T09:38:04.588Z,100073.47
2019-06-20T09:41:22.100Z,100076.17
2019-06-20T09:44:46.811Z,100072.02
2019-06-20T09:48:03.597Z,100073.45
2019-06-20T09:51:22.087Z,100074.84
2019-06-20T09:54:40.023Z,100080.92
2019-06-20T09:58:05.728Z,100074.67
2019-06-20T10:01:22.602Z,100074.17
2019-06-20T10:04:57.188Z,100064.35
2019-06-20T10:08:14.514Z,100070.57
2019-06-20T10:11:40.538Z,100071.55
2019-06-20T10:15:01.523Z,100077.14
2019-06-20T10:18:21.079Z,100062.70
2019-06-20T10:21:38.503Z,100072.39
2019-06-20T10:24:55.211Z,100066.50
2019-06-20T10:28:14.136Z,100070.38
2019-06-20T10:31:30.895Z,100068.84
2019-06-20T10:34:48.386Z,100067.80
2019-06-20T10:38:15.566Z,100060.05
2019-06-20T10:41:32.486Z,100059.17
2019-06-20T10:44:49.797Z,100061.11
2019-06-20T10:48:07.056Z,100051.75
2019-06-20T10:51:44.113Z,100058.45
2019-06-20T10:55:01.753Z,100057.22
2019-06-20T10:58:18.743Z,100048.28
2019-06-20T11:01:35.530Z,100048.47
2019-06-20T11:04:52.917Z,100054.55
2019-06-20T11:08:09.615Z,100057.97
2019-06-20T11:11:26.650Z,100039.30
2019-06-20T11:14:44.136Z,100037.59
2019-06-20T11:18:01.871Z,100040.39
2019-06-20T11:21:20.832Z,100043.46
2019-06-20T11:24:39.162Z,100035.48
2019-06-20T11:27:55.900Z,100032.43
2019-06-20T11:31:13.571Z,100033.63
2019-06-20T11:34:30.642Z,100026.00
2019-06-20T11:37:47.457Z,100023.70
2019-06-20T11:41:04.133Z,100023.50
2019-06-20T11:44:20.747Z,100012.70
2019-06-20T11:47:38.286Z,100023.64
2019-06-20T11:50:54.931Z,100026.63
2019-06-20T11:54:11.711Z,100023.91
2019-06-20T11:57:30.210Z,100033.02
2019-06-20T12:01:02.448Z,100035.40
2019-06-20T12:04:05.529Z,100031.98
2019-06-20T12:07:22.215Z,100018.02
2019-06-20T12:10:39.310Z,100009.45
2019-06-20T12:13:55.905Z,100014.16
2019-06-20T12:17:12.542Z,99995.55
2019-06-20T12:20:29.558Z,99996.08
2019-06-20T12:23:46.869Z,100001.56
2019-06-20T12:27:04.423Z,100001.67
2019-06-20T12:30:23.042Z,99998.23
2019-06-20T12:33:47.894Z,99987.58
2019-06-20T12:37:04.511Z,99990.88
2019-06-20T12:40:22.373Z,99982.59
2019-06-20T12:43:41.872Z,99985.90
2019-06-20T12:46:58.569Z,99984.91
2019-06-20T12:50:16.449Z,99992.08
2019-06-20T12:53:33.058Z,99997.09
2019-06-20T12:56:50.188Z,99997.88
2019-06-20T13:00:07.683Z,99991.39
2019-06-20T13:03:24.983Z,99996.67
2019-06-20T13:06:42.290Z,99996.72
2019-06-20T13:09:58.956Z,99995.78
2019-06-20T13:13:15.647Z,99986.39
2019-06-20T13:16:32.707Z,99995.05
2019-06-20T13:19:49.364Z,99982.95
2019-06-20T13:23:05.945Z,99998.12
2019-06-20T13:26:22.542Z,99986.27
2019-06-20T13:29:40.695Z,99981.53
2019-06-20T13:32:57.422Z,99985.27
2019-06-20T13:36:14.123Z,99990.03
2019-06-20T13:39:30.824Z,99985.77
2019-06-20T13:42:48.067Z,99975.70
2019-06-20T13:46:04.863Z,99980.27
2019-06-20T13:49:21.587Z,99984.02
2019-06-20T13:52:40.450Z,99986.90
2019-06-20T13:55:56.561Z,99988.91
2019-06-20T13:59:13.462Z,99991.00
2019-06-20T14:02:30.116Z,99980.78
2019-06-20T14:05:58.741Z,99967.73
2019-06-20T14:09:28.333Z,99988.29
2019-06-20T14:12:37.863Z,99982.58
2019-06-20T14:16:00.082Z,99989.92
2019-06-20T14:19:16.735Z,99989.84
2019-06-20T14:22:33.374Z,99993.27
2019-06-20T14:25:51.512Z,99990.08
2019-06-20T14:29:08.401Z,100007.26
2019-06-20T14:32:25.028Z,99999.88
2019-06-20T14:35:43.484Z,100003.78
2019-06-20T14:39:00.409Z,100004.48
2019-06-20T14:42:21.596Z,100022.42
2019-06-20T14:45:38.441Z,100015.39
2019-06-20T14:48:55.365Z,100030.20
2019-06-20T14:52:12.122Z,100017.70
2019-06-20T14:55:28.992Z,100026.78
2019-06-20T14:58:46.722Z,100036.05
2019-06-20T15:02:03.394Z,100042.24
2019-06-20T15:05:26.634Z,100049.02
2019-06-20T15:08:43.966Z,100052.42
2019-06-20T15:12:01.616Z,100063.84
2019-06-20T15:15:19.649Z,100065.25
2019-06-20T15:18:54.119Z,100075.66
2019-06-20T15:22:11.887Z,100073.95
2019-06-20T15:25:29.486Z,100082.52
2019-06-20T15:28:47.564Z,100077.45
2019-06-20T15:32:04.591Z,100093.22
2019-06-20T15:35:27.567Z,100099.56
2019-06-20T15:38:44.645Z,100106.75
2019-06-20T15:42:01.334Z,100112.72
2019-06-20T15:45:19.781Z,100101.23
2019-06-20T15:48:36.707Z,100090.59
2019-06-20T15:51:53.429Z,100094.77
2019-06-20T15:55:15.831Z,100093.63
2019-06-20T15:58:32.721Z,100088.50
2019-06-20T16:01:49.398Z,100076.71
2019-06-20T16:05:06.108Z,100074.58
2019-06-20T16:08:23.137Z,100082.59
2019-06-20T16:11:39.793Z,100083.17
2019-06-20T16:14:57.902Z,100070.47
2019-06-20T16:18:15.377Z,100079.70
2019-06-20T16:21:31.967Z,100075.20
2019-06-20T16:24:48.893Z,100080.50
2019-06-20T16:28:05.827Z,100073.93
2019-06-20T16:31:26.673Z,100095.71
2019-06-20T16:34:40.992Z,100088.50
2019-06-20T16:37:57.752Z,100109.65
2019-06-20T16:41:14.421Z,100111.10
2019-06-20T16:44:31.422Z,100120.88
2019-06-20T16:47:48.165Z,100123.94
2019-06-20T16:51:04.887Z,100120.05
2019-06-20T16:54:21.865Z,100116.55
2019-06-20T16:57:38.850Z,100126.78
2019-06-20T17:00:55.576Z,100129.02
2019-06-20T17:04:14.613Z,100135.42
2019-06-20T17:07:27.446Z,100145.24
2019-06-20T17:10:50.535Z,100141.86
2019-06-20T17:14:12.625Z,100143.77
2019-06-20T17:17:29.496Z,100131.58
2019-06-20T17:20:46.278Z,100145.69
2019-06-20T17:24:12.238Z,100156.09
2019-06-20T17:27:30.660Z,100153.44
2019-06-20T17:30:47.671Z,100157.00
2019-06-20T17:34:04.381Z,100166.04
2019-06-20T17:37:21.234Z,100174.83
2019-06-20T17:40:38.268Z,100176.70
2019-06-20T17:43:55.152Z,100165.89
2019-06-20T17:47:12.032Z,100173.83
2019-06-20T17:50:36.689Z,100180.49
2019-06-20T17:53:53.487Z,100175.69
2019-06-20T17:57:13.242Z,100164.13
2019-06-20T18:00:30.832Z,100166.02
2019-06-20T18:03:47.564Z,100160.88
2019-06-20T18:07:04.261Z,100171.56
2019-06-20T18:10:22.268Z,100176.23
2019-06-20T18:13:38.933Z,100177.16
2019-06-20T18:16:57.638Z,100169.02
2019-06-20T18:20:15.853Z,100173.77
2019-06-20T18:23:32.531Z,100167.50
2019-06-20T18:26:49.186Z,100173.80
2019-06-20T18:30:05.803Z,100172.81
2019-06-20T18:33:22.436Z,100174.62
2019-06-20T18:36:39.121Z,100185.68
2019-06-20T18:39:55.974Z,100178.88
2019-06-20T18:43:12.980Z,100182.93
2019-06-20T18:46:29.657Z,100196.78
2019-06-20T18:49:46.362Z,100194.08
2019-06-20T18:53:05.862Z,100195.50
2019-06-20T18:56:23.449Z,100193.81
2019-06-20T18:59:40.158Z,100198.31
2019-06-20T19:02:56.919Z,100208.91
2019-06-20T19:06:13.795Z,100216.74
2019-06-20T19:09:30.549Z,100234.17
2019-06-20T19:12:47.198Z,100235.77
2019-06-20T19:16:04.668Z,100247.59
2019-06-20T19:19:21.502Z,100243.87
2019-06-20T19:22:38.219Z,100256.12
2019-06-20T19:25:55.011Z,100260.64
2019-06-20T19:29:12.131Z,100263.83
2019-06-20T19:32:28.850Z,100270.75
2019-06-20T19:35:47.666Z,100275.13
2019-06-20T19:39:08.606Z,100280.00
2019-06-20T19:42:26.915Z,100275.61
2019-06-20T19:45:44.571Z,100266.39
2019-06-20T19:49:17.856Z,100275.64
2019-06-20T19:52:41.933Z,100283.56
2019-06-20T19:56:08.475Z,100285.66
2019-06-20T19:59:25.049Z,100290.42
2019-06-20T20:03:26.930Z,100296.30
2019-06-20T20:06:56.225Z,100297.95
2019-06-20T20:10:13.509Z,100306.39
2019-06-20T20:13:34.622Z,100311.20
2019-06-20T20:16:51.342Z,100304.83
2019-06-20T20:20:08.009Z,100298.23
2019-06-20T20:23:24.800Z,100299.08
2019-06-20T20:26:41.666Z,100300.99
2019-06-20T20:29:58.347Z,100301.59
2019-06-20T20:33:16.965Z,100304.25
2019-06-20T20:36:35.286Z,100312.89
2019-06-20T20:39:52.049Z,100310.97
2019-06-20T20:43:09.200Z,100308.35
2019-06-20T20:46:27.587Z,100305.21
2019-06-20T20:49:44.529Z,100303.79
2019-06-20T20:53:02.752Z,100302.30
2019-06-20T20:56:26.223Z,100306.04
2019-06-20T20:59:46.352Z,100311.88
2019-06-20T21:03:07.308Z,100313.20
2019-06-20T21:06:23.498Z,100303.83
2019-06-20T21:09:46.041Z,100293.02
2019-06-20T21:13:02.972Z,100302.42
2019-06-20T21:16:19.658Z,100295.11
2019-06-20T21:19:49.192Z,100303.16
